Avondale, Louisiana
Current Conditions -  °F | °C
As of 4:53 AM on Tuesday 21 Oct 2014 (Local Time) from KMSY Reporting Station
Clear Clear  
Wind Chill: 16°   Ceiling: Unl
Heat Index: 16°   Visibility: 10mi
Dew Point: 12°   Wind: 0mph
Humidity: 80%   Direction: NA
Pressure: 30.01"   Gusts: NA
Location:  29.9137°N, 90.2078°W
Report Text: KMSY 210953Z 00000KT 10SM CLR 16/12 A3001 RMK AO2 SLP164 T01560122
Loading
Personal Weather Stations






























Interactive Weather Map
Tropical Storm Tracking
New forecast layout! Learn more

10-Day Weather Forecast

Advertisements
Track Severe Weather on mobile